sensor_id;sensor_type;location;lat;lon;timestamp;P1;durP1;ratioP1;P2;durP2;ratioP2
36839;SDS011;24406;51.640;9.566;2023-05-07T00:02:52;26.33;;;20.65;;
36839;SDS011;24406;51.640;9.566;2023-05-07T00:07:55;26.05;;;21.42;;
36839;SDS011;24406;51.640;9.566;2023-05-07T00:12:57;25.33;;;21.45;;
36839;SDS011;24406;51.640;9.566;2023-05-07T00:17:58;23.35;;;20.85;;
36839;SDS011;24406;51.640;9.566;2023-05-07T00:23:01;26.65;;;22.73;;
36839;SDS011;24406;51.640;9.566;2023-05-07T00:28:03;27.42;;;22.60;;
36839;SDS011;24406;51.640;9.566;2023-05-07T00:33:04;24.90;;;22.13;;
36839;SDS011;24406;51.640;9.566;2023-05-07T00:38:07;21.65;;;19.42;;
36839;SDS011;24406;51.640;9.566;2023-05-07T00:43:09;24.05;;;20.35;;
36839;SDS011;24406;51.640;9.566;2023-05-07T00:48:10;27.02;;;22.17;;
36839;SDS011;24406;51.640;9.566;2023-05-07T00:53:13;24.52;;;21.85;;
36839;SDS011;24406;51.640;9.566;2023-05-07T00:58:15;30.20;;;24.48;;
36839;SDS011;24406;51.640;9.566;2023-05-07T01:03:16;32.67;;;24.42;;
36839;SDS011;24406;51.640;9.566;2023-05-07T01:08:19;29.42;;;24.27;;
36839;SDS011;24406;51.640;9.566;2023-05-07T01:13:22;30.52;;;25.02;;
36839;SDS011;24406;51.640;9.566;2023-05-07T01:18:25;28.90;;;24.98;;
36839;SDS011;24406;51.640;9.566;2023-05-07T01:23:28;39.33;;;26.70;;
36839;SDS011;24406;51.640;9.566;2023-05-07T01:28:30;31.20;;;25.30;;
36839;SDS011;24406;51.640;9.566;2023-05-07T01:33:34;34.08;;;29.25;;
36839;SDS011;24406;51.640;9.566;2023-05-07T01:38:38;35.45;;;26.63;;
36839;SDS011;24406;51.640;9.566;2023-05-07T01:43:41;32.30;;;25.33;;
36839;SDS011;24406;51.640;9.566;2023-05-07T01:48:42;29.98;;;23.45;;
36839;SDS011;24406;51.640;9.566;2023-05-07T01:53:47;31.67;;;25.50;;
36839;SDS011;24406;51.640;9.566;2023-05-07T01:58:51;30.92;;;24.45;;
36839;SDS011;24406;51.640;9.566;2023-05-07T02:03:53;34.10;;;27.60;;
36839;SDS011;24406;51.640;9.566;2023-05-07T02:09:00;38.97;;;28.10;;
36839;SDS011;24406;51.640;9.566;2023-05-07T02:14:02;31.13;;;26.23;;
36839;SDS011;24406;51.640;9.566;2023-05-07T02:19:04;32.47;;;27.55;;
36839;SDS011;24406;51.640;9.566;2023-05-07T02:24:07;35.22;;;26.40;;
36839;SDS011;24406;51.640;9.566;2023-05-07T02:29:08;37.00;;;28.35;;
36839;SDS011;24406;51.640;9.566;2023-05-07T02:34:12;38.75;;;29.10;;
36839;SDS011;24406;51.640;9.566;2023-05-07T02:39:14;36.15;;;28.25;;
36839;SDS011;24406;51.640;9.566;2023-05-07T02:44:16;37.63;;;27.98;;
36839;SDS011;24406;51.640;9.566;2023-05-07T02:49:22;39.28;;;29.80;;
36839;SDS011;24406;51.640;9.566;2023-05-07T02:54:25;39.53;;;29.55;;
36839;SDS011;24406;51.640;9.566;2023-05-07T02:59:26;35.60;;;26.92;;
36839;SDS011;24406;51.640;9.566;2023-05-07T03:04:28;38.08;;;29.33;;
36839;SDS011;24406;51.640;9.566;2023-05-07T03:09:31;34.70;;;28.20;;
36839;SDS011;24406;51.640;9.566;2023-05-07T03:14:32;35.55;;;28.15;;
36839;SDS011;24406;51.640;9.566;2023-05-07T03:19:34;32.65;;;26.88;;
36839;SDS011;24406;51.640;9.566;2023-05-07T03:24:37;32.97;;;26.02;;
36839;SDS011;24406;51.640;9.566;2023-05-07T03:29:38;33.97;;;26.77;;
36839;SDS011;24406;51.640;9.566;2023-05-07T03:34:40;35.72;;;27.25;;
36839;SDS011;24406;51.640;9.566;2023-05-07T03:39:47;35.63;;;27.05;;
36839;SDS011;24406;51.640;9.566;2023-05-07T03:44:48;30.77;;;26.38;;
36839;SDS011;24406;51.640;9.566;2023-05-07T03:49:50;35.95;;;27.00;;
36839;SDS011;24406;51.640;9.566;2023-05-07T03:54:57;34.13;;;25.73;;
36839;SDS011;24406;51.640;9.566;2023-05-07T03:59:59;37.15;;;26.35;;
36839;SDS011;24406;51.640;9.566;2023-05-07T04:05:06;32.95;;;27.63;;
36839;SDS011;24406;51.640;9.566;2023-05-07T04:10:09;32.83;;;27.00;;
36839;SDS011;24406;51.640;9.566;2023-05-07T04:15:14;33.03;;;25.52;;
36839;SDS011;24406;51.640;9.566;2023-05-07T04:20:16;31.40;;;24.90;;
36839;SDS011;24406;51.640;9.566;2023-05-07T04:25:22;29.48;;;24.33;;
36839;SDS011;24406;51.640;9.566;2023-05-07T04:30:30;32.70;;;25.08;;
36839;SDS011;24406;51.640;9.566;2023-05-07T04:35:31;31.58;;;24.77;;
36839;SDS011;24406;51.640;9.566;2023-05-07T04:40:36;32.88;;;26.10;;
36839;SDS011;24406;51.640;9.566;2023-05-07T04:45:39;31.65;;;25.90;;
36839;SDS011;24406;51.640;9.566;2023-05-07T04:50:43;36.15;;;25.95;;
36839;SDS011;24406;51.640;9.566;2023-05-07T04:55:48;29.83;;;24.75;;
36839;SDS011;24406;51.640;9.566;2023-05-07T05:00:51;31.73;;;24.75;;
36839;SDS011;24406;51.640;9.566;2023-05-07T05:05:52;30.55;;;24.85;;
36839;SDS011;24406;51.640;9.566;2023-05-07T05:10:57;33.13;;;23.38;;
36839;SDS011;24406;51.640;9.566;2023-05-07T05:15:59;28.67;;;23.00;;
36839;SDS011;24406;51.640;9.566;2023-05-07T05:21:03;31.48;;;23.35;;
36839;SDS011;24406;51.640;9.566;2023-05-07T05:26:07;27.65;;;21.58;;
36839;SDS011;24406;51.640;9.566;2023-05-07T05:31:10;25.83;;;20.90;;
36839;SDS011;24406;51.640;9.566;2023-05-07T05:36:11;28.27;;;21.30;;
36839;SDS011;24406;51.640;9.566;2023-05-07T05:41:15;24.52;;;19.73;;
36839;SDS011;24406;51.640;9.566;2023-05-07T05:46:16;24.73;;;19.15;;
36839;SDS011;24406;51.640;9.566;2023-05-07T05:51:18;24.48;;;19.77;;
36839;SDS011;24406;51.640;9.566;2023-05-07T05:56:21;24.38;;;19.50;;
36839;SDS011;24406;51.640;9.566;2023-05-07T06:01:22;24.05;;;18.67;;
36839;SDS011;24406;51.640;9.566;2023-05-07T06:06:25;25.95;;;19.85;;
36839;SDS011;24406;51.640;9.566;2023-05-07T06:11:29;20.75;;;17.50;;
36839;SDS011;24406;51.640;9.566;2023-05-07T06:16:30;23.83;;;17.60;;
36839;SDS011;24406;51.640;9.566;2023-05-07T06:21:32;21.73;;;17.83;;
36839;SDS011;24406;51.640;9.566;2023-05-07T06:26:35;20.92;;;17.30;;
36839;SDS011;24406;51.640;9.566;2023-05-07T06:31:37;25.50;;;19.85;;
36839;SDS011;24406;51.640;9.566;2023-05-07T06:36:41;24.42;;;17.80;;
36839;SDS011;24406;51.640;9.566;2023-05-07T06:41:53;21.27;;;17.05;;
36839;SDS011;24406;51.640;9.566;2023-05-07T06:47:00;21.37;;;16.30;;
36839;SDS011;24406;51.640;9.566;2023-05-07T06:52:01;21.58;;;17.13;;
36839;SDS011;24406;51.640;9.566;2023-05-07T06:57:05;20.30;;;16.67;;
36839;SDS011;24406;51.640;9.566;2023-05-07T07:02:07;22.02;;;16.20;;
36839;SDS011;24406;51.640;9.566;2023-05-07T07:07:09;21.48;;;18.13;;
36839;SDS011;24406;51.640;9.566;2023-05-07T07:12:13;22.90;;;17.50;;
36839;SDS011;24406;51.640;9.566;2023-05-07T07:17:16;22.98;;;17.92;;
36839;SDS011;24406;51.640;9.566;2023-05-07T07:22:18;22.73;;;16.73;;
36839;SDS011;24406;51.640;9.566;2023-05-07T07:27:21;20.85;;;16.95;;
36839;SDS011;24406;51.640;9.566;2023-05-07T07:32:23;24.27;;;16.73;;
36839;SDS011;24406;51.640;9.566;2023-05-07T07:37:28;20.52;;;16.48;;
36839;SDS011;24406;51.640;9.566;2023-05-07T07:42:31;19.13;;;16.13;;
36839;SDS011;24406;51.640;9.566;2023-05-07T07:47:34;16.90;;;14.05;;
36839;SDS011;24406;51.640;9.566;2023-05-07T07:52:36;19.38;;;15.10;;
36839;SDS011;24406;51.640;9.566;2023-05-07T07:57:39;17.58;;;14.60;;
36839;SDS011;24406;51.640;9.566;2023-05-07T08:02:40;17.65;;;14.68;;
36839;SDS011;24406;51.640;9.566;2023-05-07T08:07:42;15.50;;;13.20;;
36839;SDS011;24406;51.640;9.566;2023-05-07T08:12:47;15.15;;;13.00;;
36839;SDS011;24406;51.640;9.566;2023-05-07T08:17:49;17.23;;;12.82;;
36839;SDS011;24406;51.640;9.566;2023-05-07T08:22:51;15.43;;;12.05;;
36839;SDS011;24406;51.640;9.566;2023-05-07T08:27:54;13.30;;;11.30;;
36839;SDS011;24406;51.640;9.566;2023-05-07T08:32:56;11.82;;;10.50;;
36839;SDS011;24406;51.640;9.566;2023-05-07T08:37:57;12.32;;;10.80;;
36839;SDS011;24406;51.640;9.566;2023-05-07T08:43:00;13.23;;;10.05;;
36839;SDS011;24406;51.640;9.566;2023-05-07T08:48:03;10.55;;;9.45;;
36839;SDS011;24406;51.640;9.566;2023-05-07T08:53:12;14.15;;;10.07;;
36839;SDS011;24406;51.640;9.566;2023-05-07T08:58:16;11.27;;;10.07;;
36839;SDS011;24406;51.640;9.566;2023-05-07T09:03:18;11.15;;;9.60;;
36839;SDS011;24406;51.640;9.566;2023-05-07T09:08:24;11.63;;;9.65;;
36839;SDS011;24406;51.640;9.566;2023-05-07T09:13:28;13.85;;;10.05;;
36839;SDS011;24406;51.640;9.566;2023-05-07T09:18:30;13.30;;;9.57;;
36839;SDS011;24406;51.640;9.566;2023-05-07T09:23:31;9.90;;;8.88;;
36839;SDS011;24406;51.640;9.566;2023-05-07T09:28:34;13.70;;;9.10;;
36839;SDS011;24406;51.640;9.566;2023-05-07T09:33:36;10.43;;;8.70;;
36839;SDS011;24406;51.640;9.566;2023-05-07T09:38:39;10.93;;;9.13;;
36839;SDS011;24406;51.640;9.566;2023-05-07T09:43:43;11.70;;;10.50;;
36839;SDS011;24406;51.640;9.566;2023-05-07T09:48:47;12.95;;;10.45;;
36839;SDS011;24406;51.640;9.566;2023-05-07T09:53:50;12.32;;;9.68;;
36839;SDS011;24406;51.640;9.566;2023-05-07T09:58:55;11.52;;;9.23;;
36839;SDS011;24406;51.640;9.566;2023-05-07T10:03:59;10.77;;;9.52;;
36839;SDS011;24406;51.640;9.566;2023-05-07T10:09:04;11.23;;;9.63;;
36839;SDS011;24406;51.640;9.566;2023-05-07T10:14:08;9.73;;;8.80;;
36839;SDS011;24406;51.640;9.566;2023-05-07T10:19:10;11.98;;;10.50;;
36839;SDS011;24406;51.640;9.566;2023-05-07T10:24:16;11.38;;;10.25;;
36839;SDS011;24406;51.640;9.566;2023-05-07T10:29:29;11.30;;;10.20;;
36839;SDS011;24406;51.640;9.566;2023-05-07T10:34:37;12.38;;;11.10;;
36839;SDS011;24406;51.640;9.566;2023-05-07T10:39:41;12.48;;;11.07;;
36839;SDS011;24406;51.640;9.566;2023-05-07T10:44:44;13.77;;;12.02;;
36839;SDS011;24406;51.640;9.566;2023-05-07T10:55:22;13.60;;;12.20;;
36839;SDS011;24406;51.640;9.566;2023-05-07T11:00:45;14.13;;;12.70;;
36839;SDS011;24406;51.640;9.566;2023-05-07T11:06:11;13.77;;;12.38;;
36839;SDS011;24406;51.640;9.566;2023-05-07T11:11:46;17.65;;;15.60;;
36839;SDS011;24406;51.640;9.566;2023-05-07T11:17:09;17.73;;;14.05;;
36839;SDS011;24406;51.640;9.566;2023-05-07T11:28:07;14.93;;;13.52;;
36839;SDS011;24406;51.640;9.566;2023-05-07T11:33:12;17.30;;;15.60;;
36839;SDS011;24406;51.640;9.566;2023-05-07T11:38:19;20.90;;;18.67;;
36839;SDS011;24406;51.640;9.566;2023-05-07T11:43:20;20.85;;;15.98;;
36839;SDS011;24406;51.640;9.566;2023-05-07T11:48:23;16.67;;;14.80;;
36839;SDS011;24406;51.640;9.566;2023-05-07T11:53:25;19.77;;;17.88;;
36839;SDS011;24406;51.640;9.566;2023-05-07T11:58:27;19.48;;;17.45;;
36839;SDS011;24406;51.640;9.566;2023-05-07T12:03:30;19.13;;;17.10;;
36839;SDS011;24406;51.640;9.566;2023-05-07T12:08:32;23.50;;;21.10;;
36839;SDS011;24406;51.640;9.566;2023-05-07T12:13:33;19.23;;;17.30;;
36839;SDS011;24406;51.640;9.566;2023-05-07T12:18:37;21.10;;;18.80;;
36839;SDS011;24406;51.640;9.566;2023-05-07T12:23:38;21.65;;;19.38;;
36839;SDS011;24406;51.640;9.566;2023-05-07T12:28:40;26.25;;;23.48;;
36839;SDS011;24406;51.640;9.566;2023-05-07T12:33:43;23.15;;;20.85;;
36839;SDS011;24406;51.640;9.566;2023-05-07T12:38:45;22.58;;;18.45;;
36839;SDS011;24406;51.640;9.566;2023-05-07T12:43:46;24.98;;;22.38;;
36839;SDS011;24406;51.640;9.566;2023-05-07T12:48:49;25.83;;;23.42;;
36839;SDS011;24406;51.640;9.566;2023-05-07T12:53:51;24.92;;;22.52;;
36839;SDS011;24406;51.640;9.566;2023-05-07T12:58:57;21.55;;;19.27;;
36839;SDS011;24406;51.640;9.566;2023-05-07T13:04:02;21.75;;;18.85;;
36839;SDS011;24406;51.640;9.566;2023-05-07T13:09:04;21.33;;;19.13;;
36839;SDS011;24406;51.640;9.566;2023-05-07T13:14:05;21.63;;;19.35;;
36839;SDS011;24406;51.640;9.566;2023-05-07T13:19:09;20.65;;;18.65;;
36839;SDS011;24406;51.640;9.566;2023-05-07T13:24:11;18.58;;;16.67;;
36839;SDS011;24406;51.640;9.566;2023-05-07T13:29:12;18.25;;;16.50;;
36839;SDS011;24406;51.640;9.566;2023-05-07T13:34:15;17.80;;;16.10;;
36839;SDS011;24406;51.640;9.566;2023-05-07T13:39:17;20.52;;;18.40;;
36839;SDS011;24406;51.640;9.566;2023-05-07T13:44:18;17.98;;;16.08;;
36839;SDS011;24406;51.640;9.566;2023-05-07T13:49:22;19.23;;;17.25;;
36839;SDS011;24406;51.640;9.566;2023-05-07T13:54:24;17.60;;;15.80;;
36839;SDS011;24406;51.640;9.566;2023-05-07T13:59:25;20.10;;;18.10;;
36839;SDS011;24406;51.640;9.566;2023-05-07T14:04:28;17.70;;;16.00;;
36839;SDS011;24406;51.640;9.566;2023-05-07T14:09:31;19.33;;;17.33;;
36839;SDS011;24406;51.640;9.566;2023-05-07T14:14:32;18.02;;;16.02;;
36839;SDS011;24406;51.640;9.566;2023-05-07T14:19:35;19.00;;;17.15;;
36839;SDS011;24406;51.640;9.566;2023-05-07T14:24:37;19.15;;;17.35;;
36839;SDS011;24406;51.640;9.566;2023-05-07T14:29:39;17.38;;;15.68;;
36839;SDS011;24406;51.640;9.566;2023-05-07T14:34:42;15.85;;;14.35;;
36839;SDS011;24406;51.640;9.566;2023-05-07T14:39:44;18.58;;;16.88;;
36839;SDS011;24406;51.640;9.566;2023-05-07T14:44:45;18.48;;;16.67;;
36839;SDS011;24406;51.640;9.566;2023-05-07T14:49:49;17.00;;;15.23;;
36839;SDS011;24406;51.640;9.566;2023-05-07T14:54:51;16.45;;;14.95;;
36839;SDS011;24406;51.640;9.566;2023-05-07T14:59:52;16.63;;;15.02;;
36839;SDS011;24406;51.640;9.566;2023-05-07T15:04:55;15.80;;;14.23;;
36839;SDS011;24406;51.640;9.566;2023-05-07T15:09:57;19.23;;;15.05;;
36839;SDS011;24406;51.640;9.566;2023-05-07T15:14:58;14.77;;;13.45;;
36839;SDS011;24406;51.640;9.566;2023-05-07T15:20:01;15.68;;;14.27;;
36839;SDS011;24406;51.640;9.566;2023-05-07T15:25:05;15.90;;;14.25;;
36839;SDS011;24406;51.640;9.566;2023-05-07T15:30:07;14.68;;;13.27;;
36839;SDS011;24406;51.640;9.566;2023-05-07T15:35:12;15.98;;;14.38;;
36839;SDS011;24406;51.640;9.566;2023-05-07T15:40:13;15.50;;;13.93;;
36839;SDS011;24406;51.640;9.566;2023-05-07T15:45:15;14.25;;;12.80;;
36839;SDS011;24406;51.640;9.566;2023-05-07T15:50:18;13.27;;;12.07;;
36839;SDS011;24406;51.640;9.566;2023-05-07T15:55:19;14.32;;;13.02;;
36839;SDS011;24406;51.640;9.566;2023-05-07T16:00:21;14.48;;;12.40;;
36839;SDS011;24406;51.640;9.566;2023-05-07T16:05:24;13.60;;;12.40;;
36839;SDS011;24406;51.640;9.566;2023-05-07T16:10:25;14.50;;;13.25;;
36839;SDS011;24406;51.640;9.566;2023-05-07T16:15:27;52.45;;;46.97;;
36839;SDS011;24406;51.640;9.566;2023-05-07T16:20:30;12.48;;;11.48;;
36839;SDS011;24406;51.640;9.566;2023-05-07T16:25:31;16.40;;;14.88;;
36839;SDS011;24406;51.640;9.566;2023-05-07T16:30:33;13.52;;;12.23;;
36839;SDS011;24406;51.640;9.566;2023-05-07T16:35:36;18.73;;;12.32;;
36839;SDS011;24406;51.640;9.566;2023-05-07T16:40:37;11.48;;;10.48;;
36839;SDS011;24406;51.640;9.566;2023-05-07T16:45:39;12.18;;;11.18;;
36839;SDS011;24406;51.640;9.566;2023-05-07T16:50:42;11.90;;;10.88;;
36839;SDS011;24406;51.640;9.566;2023-05-07T16:55:43;11.93;;;10.82;;
36839;SDS011;24406;51.640;9.566;2023-05-07T17:00:45;12.82;;;11.02;;
36839;SDS011;24406;51.640;9.566;2023-05-07T17:05:48;13.30;;;10.75;;
36839;SDS011;24406;51.640;9.566;2023-05-07T17:10:49;16.92;;;15.43;;
36839;SDS011;24406;51.640;9.566;2023-05-07T17:15:51;12.10;;;11.10;;
36839;SDS011;24406;51.640;9.566;2023-05-07T17:20:54;11.20;;;10.38;;
36839;SDS011;24406;51.640;9.566;2023-05-07T17:25:56;11.77;;;10.75;;
36839;SDS011;24406;51.640;9.566;2023-05-07T17:30:57;12.43;;;11.25;;
36839;SDS011;24406;51.640;9.566;2023-05-07T17:36:00;14.93;;;13.63;;
36839;SDS011;24406;51.640;9.566;2023-05-07T17:41:03;12.10;;;10.95;;
36839;SDS011;24406;51.640;9.566;2023-05-07T17:46:06;12.25;;;11.15;;
36839;SDS011;24406;51.640;9.566;2023-05-07T17:51:09;10.82;;;9.70;;
36839;SDS011;24406;51.640;9.566;2023-05-07T17:56:11;10.32;;;9.45;;
36839;SDS011;24406;51.640;9.566;2023-05-07T18:01:13;10.43;;;9.55;;
36839;SDS011;24406;51.640;9.566;2023-05-07T18:06:15;11.02;;;9.93;;
36839;SDS011;24406;51.640;9.566;2023-05-07T18:11:19;11.10;;;10.00;;
36839;SDS011;24406;51.640;9.566;2023-05-07T18:16:21;10.45;;;9.55;;
36839;SDS011;24406;51.640;9.566;2023-05-07T18:21:24;10.85;;;9.80;;
36839;SDS011;24406;51.640;9.566;2023-05-07T18:26:26;10.73;;;9.82;;
36839;SDS011;24406;51.640;9.566;2023-05-07T18:31:27;9.55;;;8.77;;
36839;SDS011;24406;51.640;9.566;2023-05-07T18:36:30;9.98;;;8.57;;
36839;SDS011;24406;51.640;9.566;2023-05-07T18:41:32;11.00;;;10.00;;
36839;SDS011;24406;51.640;9.566;2023-05-07T18:46:33;10.88;;;9.90;;
36839;SDS011;24406;51.640;9.566;2023-05-07T18:51:36;10.82;;;9.82;;
36839;SDS011;24406;51.640;9.566;2023-05-07T18:56:37;10.63;;;9.73;;
36839;SDS011;24406;51.640;9.566;2023-05-07T19:01:39;11.73;;;10.63;;
36839;SDS011;24406;51.640;9.566;2023-05-07T19:06:42;11.43;;;10.38;;
36839;SDS011;24406;51.640;9.566;2023-05-07T19:11:43;9.55;;;8.68;;
36839;SDS011;24406;51.640;9.566;2023-05-07T19:16:45;9.48;;;8.65;;
36839;SDS011;24406;51.640;9.566;2023-05-07T19:21:48;9.88;;;9.07;;
36839;SDS011;24406;51.640;9.566;2023-05-07T19:26:49;11.77;;;10.60;;
36839;SDS011;24406;51.640;9.566;2023-05-07T19:31:51;10.85;;;9.63;;
36839;SDS011;24406;51.640;9.566;2023-05-07T19:36:54;10.10;;;9.20;;
36839;SDS011;24406;51.640;9.566;2023-05-07T19:41:56;10.45;;;8.10;;
36839;SDS011;24406;51.640;9.566;2023-05-07T19:46:57;10.15;;;9.15;;
36839;SDS011;24406;51.640;9.566;2023-05-07T19:52:02;8.93;;;8.13;;
36839;SDS011;24406;51.640;9.566;2023-05-07T19:57:04;8.25;;;7.55;;
36839;SDS011;24406;51.640;9.566;2023-05-07T20:02:06;9.45;;;7.68;;
36839;SDS011;24406;51.640;9.566;2023-05-07T20:07:08;10.32;;;7.85;;
36839;SDS011;24406;51.640;9.566;2023-05-07T20:12:10;8.27;;;7.57;;
36839;SDS011;24406;51.640;9.566;2023-05-07T20:17:11;7.85;;;7.15;;
36839;SDS011;24406;51.640;9.566;2023-05-07T20:22:14;7.30;;;6.70;;
36839;SDS011;24406;51.640;9.566;2023-05-07T20:27:16;7.75;;;7.05;;
36839;SDS011;24406;51.640;9.566;2023-05-07T20:32:21;7.53;;;6.88;;
36839;SDS011;24406;51.640;9.566;2023-05-07T20:37:24;9.07;;;7.18;;
36839;SDS011;24406;51.640;9.566;2023-05-07T20:42:26;7.30;;;6.70;;
36839;SDS011;24406;51.640;9.566;2023-05-07T20:47:30;7.30;;;6.70;;
36839;SDS011;24406;51.640;9.566;2023-05-07T20:52:33;7.05;;;6.35;;
36839;SDS011;24406;51.640;9.566;2023-05-07T20:57:35;6.38;;;5.88;;
36839;SDS011;24406;51.640;9.566;2023-05-07T21:02:36;7.25;;;6.65;;
36839;SDS011;24406;51.640;9.566;2023-05-07T21:07:39;6.45;;;5.93;;
36839;SDS011;24406;51.640;9.566;2023-05-07T21:12:41;6.68;;;6.07;;
36839;SDS011;24406;51.640;9.566;2023-05-07T21:17:42;7.13;;;6.45;;
36839;SDS011;24406;51.640;9.566;2023-05-07T21:22:45;6.93;;;6.22;;
36839;SDS011;24406;51.640;9.566;2023-05-07T21:27:46;7.30;;;6.65;;
36839;SDS011;24406;51.640;9.566;2023-05-07T21:32:48;7.03;;;6.40;;
36839;SDS011;24406;51.640;9.566;2023-05-07T21:37:51;7.30;;;6.70;;
36839;SDS011;24406;51.640;9.566;2023-05-07T21:42:52;9.68;;;8.43;;
36839;SDS011;24406;51.640;9.566;2023-05-07T21:47:54;9.40;;;6.60;;
36839;SDS011;24406;51.640;9.566;2023-05-07T21:52:57;7.40;;;6.70;;
36839;SDS011;24406;51.640;9.566;2023-05-07T21:57:59;7.40;;;6.80;;
36839;SDS011;24406;51.640;9.566;2023-05-07T22:03:00;6.80;;;6.30;;
36839;SDS011;24406;51.640;9.566;2023-05-07T22:08:03;7.43;;;6.82;;
36839;SDS011;24406;51.640;9.566;2023-05-07T22:13:05;8.77;;;7.28;;
36839;SDS011;24406;51.640;9.566;2023-05-07T22:18:06;8.27;;;7.57;;
36839;SDS011;24406;51.640;9.566;2023-05-07T22:23:09;9.15;;;7.68;;
36839;SDS011;24406;51.640;9.566;2023-05-07T22:28:11;8.73;;;7.72;;
36839;SDS011;24406;51.640;9.566;2023-05-07T22:33:12;9.07;;;8.20;;
36839;SDS011;24406;51.640;9.566;2023-05-07T22:38:15;10.68;;;8.52;;
36839;SDS011;24406;51.640;9.566;2023-05-07T22:43:16;9.68;;;7.78;;
36839;SDS011;24406;51.640;9.566;2023-05-07T22:48:18;8.93;;;7.78;;
36839;SDS011;24406;51.640;9.566;2023-05-07T22:53:21;8.68;;;7.97;;
36839;SDS011;24406;51.640;9.566;2023-05-07T22:58:22;12.15;;;7.85;;
36839;SDS011;24406;51.640;9.566;2023-05-07T23:03:24;8.13;;;7.43;;
36839;SDS011;24406;51.640;9.566;2023-05-07T23:08:27;8.82;;;8.05;;
36839;SDS011;24406;51.640;9.566;2023-05-07T23:13:28;9.88;;;8.98;;
36839;SDS011;24406;51.640;9.566;2023-05-07T23:18:30;9.60;;;8.63;;
36839;SDS011;24406;51.640;9.566;2023-05-07T23:23:33;9.48;;;8.68;;
36839;SDS011;24406;51.640;9.566;2023-05-07T23:28:35;9.75;;;8.88;;
36839;SDS011;24406;51.640;9.566;2023-05-07T23:33:37;10.15;;;9.15;;
36839;SDS011;24406;51.640;9.566;2023-05-07T23:38:40;10.48;;;9.48;;
36839;SDS011;24406;51.640;9.566;2023-05-07T23:43:41;10.57;;;9.65;;
36839;SDS011;24406;51.640;9.566;2023-05-07T23:48:43;10.60;;;9.70;;
36839;SDS011;24406;51.640;9.566;2023-05-07T23:53:45;10.50;;;8.57;;
36839;SDS011;24406;51.640;9.566;2023-05-07T23:58:47;11.38;;;10.25;;
